EDT,Max TemperatureF,Mean TemperatureF,Min TemperatureF,Max Dew PointF,MeanDew PointF,Min DewpointF,Max Humidity, Mean Humidity, Min Humidity, Max Sea Level PressureIn, Mean Sea Level PressureIn, Min Sea Level PressureIn, Max VisibilityMiles, Mean VisibilityMiles, Min VisibilityMiles, Max Wind SpeedMPH, Mean Wind SpeedMPH, Max Gust SpeedMPH,PrecipitationIn, CloudCover, Events, WindDirDegrees
2013-6-1,90,77,64,68,65,61,87,65,43,29.93,29.85,29.77,10,9,2,23,9,30,0.77,5,Rain-Thunderstorm,178
2013-6-2,88,77,65,70,67,58,93,72,51,29.82,29.72,29.64,10,10,3,22,9,29,0.42,5,Rain-Thunderstorm,171
2013-6-3,70,63,56,60,49,39,87,62,37,29.88,29.82,29.76,10,10,10,21,9,26,0.00,3,,297
2013-6-4,67,59,51,46,41,38,72,57,42,30.12,29.99,29.87,10,10,10,22,10,30,0.00,2,,322
2013-6-5,71,59,46,47,42,38,93,62,31,30.22,30.17,30.13,10,10,10,12,4,15,0.00,2,,5
2013-6-6,64,59,54,54,50,45,93,73,52,30.18,30.13,30.07,10,10,9,10,4,12,0.18,7,Rain,4
2013-6-7,59,56,53,54,52,47,100,89,77,30.05,29.98,29.88,10,8,1,15,5,20,0.59,8,Rain,141
2013-6-8,62,58,54,56,55,53,100,86,72,30.03,29.87,29.78,10,7,1,12,5,15,0.06,8,Rain,349
2013-6-9,79,67,55,57,55,49,93,65,37,30.19,30.08,30.03,10,10,10,12,6,21,T,5,,193
2013-6-10,77,65,52,58,53,45,96,64,31,30.20,30.11,29.95,10,10,10,14,6,18,0.19,3,Rain,136
2013-6-11,63,60,57,57,56,54,93,90,86,29.93,29.68,29.59,10,6,2,16,6,21,1.94,8,Rain,84
2013-6-12,71,63,55,55,54,52,93,75,57,29.86,29.76,29.63,10,8,2,21,8,28,0.47,7,Rain,353
2013-6-13,71,61,51,56,53,50,96,74,51,29.82,29.75,29.69,10,10,10,12,4,16,0.00,5,,176
2013-6-14,78,66,53,56,52,46,93,68,42,29.86,29.76,29.70,10,10,10,22,7,29,T,2,,345
2013-6-15,77,63,48,49,44,39,93,60,27,29.96,29.92,29.86,10,10,10,13,4,17,0.00,1,,298
2013-6-16,68,61,54,60,53,44,93,69,45,29.90,29.79,29.68,10,9,5,21,7,26,0.30,6,Rain,181
2013-6-17,75,66,57,61,56,50,93,70,46,29.95,29.82,29.76,10,10,10,13,6,18,0.05,5,Rain-Thunderstorm,279
2013-6-18,72,62,51,50,47,40,89,60,31,30.00,29.96,29.94,10,10,10,9,3,14,0.00,4,,341
2013-6-19,70,59,47,48,42,37,83,57,31,30.19,30.10,30.00,10,10,10,16,7,22,0.00,1,,352
2013-6-20,77,62,46,52,47,43,86,61,35,30.26,30.22,30.17,10,10,10,9,2,12,0.00,0,,354
2013-6-21,84,68,52,58,52,49,89,60,31,30.25,30.22,30.19,10,10,10,9,1,13,0.00,1,,215
2013-6-22,80,71,62,66,62,56,90,72,54,30.20,30.14,30.08,10,9,4,15,4,18,0.13,6,Rain,137
2013-6-23,86,77,67,73,69,65,93,79,65,30.08,30.01,29.94,10,8,1,17,6,25,0.58,5,Rain-Thunderstorm,185
2013-6-24,89,79,68,75,68,64,87,69,51,29.97,29.92,29.86,10,9,0,24,8,37,0.40,4,Rain-Thunderstorm,188
2013-6-25,88,78,68,70,67,64,97,77,57,29.91,29.80,29.75,10,8,0,24,8,31,1.18,5,Fog-Rain-Thunderstorm,174
2013-6-26,79,73,67,70,66,64,100,85,69,29.80,29.77,29.74,10,9,2,13,5,17,0.35,5,Rain-Thunderstorm,173
2013-6-27,85,76,67,71,67,63,93,72,51,29.79,29.75,29.70,10,10,10,13,6,16,T,4,Rain,249
2013-6-28,79,70,60,66,61,58,100,80,60,29.70,29.50,29.38,10,8,2,21,9,30,0.54,7,Rain,341
2013-6-29,80,72,63,66,63,58,93,79,64,29.67,29.56,29.49,10,8,0,20,4,25,1.41,7,Fog-Rain-Thunderstorm,265
2013-6-30,82,73,63,66,64,62,100,76,51,29.94,29.80,29.68,10,6,0,12,4,16,0.30,6,Fog-Rain,349